createdAt,value
2018-12-22T00:01:00.448Z,87.62
2018-12-22T00:03:33.545Z,87.56
2018-12-22T00:06:14.262Z,88.06
2018-12-22T00:08:46.498Z,87.10
2018-12-22T00:11:24.226Z,87.35
2018-12-22T00:14:03.521Z,87.09
2018-12-22T00:16:37.474Z,87.59
2018-12-22T00:19:08.657Z,88.42
2018-12-22T00:21:49.311Z,87.92
2018-12-22T00:24:21.267Z,87.76
2018-12-22T00:26:59.333Z,87.99
2018-12-22T00:29:31.699Z,88.24
2018-12-22T00:35:03.794Z,89.62
2018-12-22T00:37:34.854Z,89.30
2018-12-22T00:40:06.779Z,88.80
2018-12-22T00:42:38.961Z,88.65
2018-12-22T00:45:16.760Z,88.79
2018-12-22T00:47:48.131Z,89.51
2018-12-22T00:50:26.845Z,89.16
2018-12-22T00:53:04.851Z,90.25
2018-12-22T00:55:43.004Z,89.61
2018-12-22T00:58:16.920Z,90.29
2018-12-22T01:00:55.761Z,91.49
2018-12-22T01:03:30.606Z,90.57
2018-12-22T01:06:02.200Z,90.83
2018-12-22T01:08:32.218Z,91.05
2018-12-22T01:11:10.068Z,92.30
2018-12-22T01:13:45.274Z,92.75
2018-12-22T01:16:25.930Z,92.83
2018-12-22T01:19:01.071Z,95.05
2018-12-22T01:21:35.094Z,95.29
2018-12-22T01:24:05.554Z,96.40
2018-12-22T01:26:36.616Z,96.69
2018-12-22T01:29:07.838Z,97.78
2018-12-22T01:31:38.956Z,97.88
2018-12-22T01:34:13.676Z,98.25
2018-12-22T01:36:52.783Z,99.77
2018-12-22T01:39:23.794Z,100.00
2018-12-22T01:42:01.702Z,100.00
2018-12-22T01:44:39.748Z,100.00
2018-12-22T01:47:13.923Z,99.55
2018-12-22T01:49:52.794Z,100.00
2018-12-22T01:52:24.062Z,100.00
2018-12-22T01:54:55.244Z,100.00
2018-12-22T01:57:32.971Z,99.68
2018-12-22T02:00:12.920Z,100.00
2018-12-22T02:02:44.446Z,100.00
2018-12-22T02:05:23.044Z,100.00
2018-12-22T02:07:54.307Z,100.00
2018-12-22T02:10:33.075Z,100.00
2018-12-22T02:13:13.138Z,100.00
2018-12-22T02:15:45.449Z,100.00
2018-12-22T02:18:19.515Z,100.00
2018-12-22T02:20:50.479Z,100.00
2018-12-22T02:23:32.246Z,100.00
2018-12-22T02:26:12.594Z,100.00
2018-12-22T02:28:46.157Z,100.00
2018-12-22T02:31:25.037Z,100.00
2018-12-22T02:34:04.171Z,100.00
2018-12-22T02:36:42.990Z,100.00
2018-12-22T02:39:15.423Z,100.00
2018-12-22T02:41:55.328Z,100.00
2018-12-22T02:44:34.172Z,100.00
2018-12-22T02:47:13.496Z,100.00
2018-12-22T02:49:52.500Z,100.00
2018-12-22T02:52:32.538Z,100.00
2018-12-22T02:55:07.790Z,100.00
2018-12-22T02:57:40.191Z,100.00
2018-12-22T03:00:11.315Z,100.00
2018-12-22T03:02:42.247Z,100.00
2018-12-22T03:08:10.772Z,100.00
2018-12-22T03:10:44.791Z,100.00
2018-12-22T03:13:23.786Z,100.00
2018-12-22T03:16:11.925Z,100.00
2018-12-22T03:18:46.868Z,100.00
2018-12-22T03:24:17.960Z,100.00
2018-12-22T03:26:50.156Z,100.00
2018-12-22T03:29:22.198Z,100.00
2018-12-22T03:32:00.163Z,100.00
2018-12-22T03:34:40.103Z,100.00
2018-12-22T03:37:19.205Z,100.00
2018-12-22T03:40:04.622Z,100.00
2018-12-22T03:42:43.954Z,100.00
2018-12-22T03:45:23.922Z,100.00
2018-12-22T03:48:03.971Z,100.00
2018-12-22T03:50:45.817Z,100.00
2018-12-22T03:56:14.384Z,100.00
2018-12-22T03:58:50.330Z,100.00
2018-12-22T04:01:26.267Z,100.00
2018-12-22T04:04:06.232Z,100.00
2018-12-22T04:06:52.007Z,100.00
2018-12-22T04:09:28.489Z,100.00
2018-12-22T04:12:07.610Z,100.00
2018-12-22T04:14:47.361Z,100.00
2018-12-22T04:17:26.297Z,100.00
2018-12-22T04:20:06.965Z,100.00
2018-12-22T04:22:38.535Z,100.00
2018-12-22T04:25:10.910Z,100.00
2018-12-22T04:27:42.864Z,100.00
2018-12-22T04:30:22.778Z,100.00
2018-12-22T04:33:01.923Z,100.00
2018-12-22T04:35:40.068Z,100.00
2018-12-22T04:38:12.326Z,96.72
2018-12-22T04:40:52.230Z,96.64
2018-12-22T04:49:10.470Z,100.00
2018-12-22T04:51:49.481Z,100.00
2018-12-22T04:54:29.514Z,100.00
2018-12-22T04:57:07.444Z,100.00
2018-12-22T04:59:43.197Z,100.00
2018-12-22T05:02:16.640Z,100.00
2018-12-22T05:04:56.483Z,100.00
2018-12-22T05:07:34.406Z,100.00
2018-12-22T05:10:12.415Z,100.00
2018-12-22T05:12:43.642Z,100.00
2018-12-22T05:15:21.501Z,100.00
2018-12-22T05:17:52.623Z,100.00
2018-12-22T05:20:23.778Z,100.00
2018-12-22T05:23:01.710Z,100.00
2018-12-22T05:25:39.771Z,100.00
2018-12-22T05:28:11.046Z,100.00
2018-12-22T05:30:48.906Z,100.00
2018-12-22T05:33:26.816Z,100.00
2018-12-22T05:36:04.744Z,100.00
2018-12-22T05:38:36.113Z,100.00
2018-12-22T05:41:15.097Z,100.00
2018-12-22T05:43:49.422Z,100.00
2018-12-22T05:46:27.374Z,100.00
2018-12-22T05:49:01.398Z,100.00
2018-12-22T05:51:39.443Z,100.00
2018-12-22T05:54:17.375Z,100.00
2018-12-22T05:56:55.376Z,100.00
2018-12-22T06:02:19.835Z,100.00
2018-12-22T06:05:00.392Z,100.00
2018-12-22T06:07:38.373Z,100.00
2018-12-22T06:10:12.530Z,100.00
2018-12-22T06:12:51.352Z,100.00
2018-12-22T06:15:29.256Z,100.00
2018-12-22T06:18:00.517Z,100.00
2018-12-22T06:20:32.048Z,100.00
2018-12-22T06:23:01.984Z,100.00
2018-12-22T06:25:33.123Z,100.00
2018-12-22T06:28:06.350Z,100.00
2018-12-22T06:30:44.161Z,100.00
2018-12-22T06:33:22.198Z,100.00
2018-12-22T06:36:00.311Z,100.00
2018-12-22T06:38:33.542Z,100.00
2018-12-22T06:41:12.200Z,100.00
2018-12-22T06:43:44.580Z,100.00
2018-12-22T06:46:14.539Z,100.00
2018-12-22T06:48:46.569Z,100.00
2018-12-22T06:51:24.398Z,100.00
2018-12-22T06:54:00.616Z,100.00
2018-12-22T06:56:35.492Z,100.00
2018-12-22T06:59:14.387Z,100.00
2018-12-22T07:01:52.484Z,100.00
2018-12-22T07:04:30.532Z,100.00
2018-12-22T07:07:08.368Z,100.00
2018-12-22T07:09:40.611Z,100.00
2018-12-22T07:12:11.667Z,100.00
2018-12-22T07:14:50.391Z,100.00
2018-12-22T07:17:28.253Z,100.00
2018-12-22T07:20:10.086Z,100.00
2018-12-22T07:22:39.792Z,100.00
2018-12-22T07:25:18.379Z,99.71
2018-12-22T07:27:49.634Z,99.26
2018-12-22T07:30:28.441Z,100.00
2018-12-22T07:33:06.250Z,99.26
2018-12-22T07:35:45.365Z,99.96
2018-12-22T07:38:14.910Z,98.17
2018-12-22T07:40:53.682Z,96.46
2018-12-22T07:43:31.714Z,96.19
2018-12-22T07:46:10.797Z,96.48
2018-12-22T07:48:42.473Z,96.63
2018-12-22T07:51:20.792Z,96.89
2018-12-22T07:53:58.838Z,97.42
2018-12-22T07:56:32.872Z,98.05
2018-12-22T07:59:04.229Z,95.51
2018-12-22T08:01:42.863Z,96.04
2018-12-22T08:04:16.895Z,95.86
2018-12-22T08:06:50.824Z,95.03
2018-12-22T08:09:21.973Z,95.99
2018-12-22T08:11:59.797Z,96.12
2018-12-22T08:14:37.727Z,96.68
2018-12-22T08:17:11.697Z,95.66
2018-12-22T08:19:47.566Z,95.55
2018-12-22T08:22:25.574Z,96.07
2018-12-22T08:24:59.554Z,95.62
2018-12-22T08:27:38.483Z,95.99
2018-12-22T08:30:16.338Z,96.08
2018-12-22T08:32:50.349Z,96.05
2018-12-22T08:35:28.370Z,96.02
2018-12-22T08:38:00.804Z,95.92
2018-12-22T08:40:32.663Z,95.88
2018-12-22T08:43:10.531Z,95.74
2018-12-22T08:45:41.930Z,96.80
2018-12-22T08:48:13.897Z,95.82
2018-12-22T08:50:52.626Z,94.56
2018-12-22T08:53:26.907Z,94.72
2018-12-22T08:56:08.236Z,94.83
2018-12-22T08:58:39.715Z,95.62
2018-12-22T09:01:18.491Z,96.21
2018-12-22T09:03:52.578Z,95.05
2018-12-22T09:06:30.703Z,95.34
2018-12-22T09:11:54.944Z,95.07
2018-12-22T09:17:19.300Z,95.13
2018-12-22T09:19:59.807Z,95.02
2018-12-22T09:22:39.942Z,94.62
2018-12-22T09:25:18.055Z,95.57
2018-12-22T09:27:52.997Z,96.07
2018-12-22T09:30:30.818Z,93.67
2018-12-22T09:33:06.828Z,95.33
2018-12-22T09:35:44.670Z,95.17
2018-12-22T09:38:16.863Z,95.77
2018-12-22T09:40:54.581Z,96.27
2018-12-22T09:43:32.610Z,94.81
2018-12-22T09:46:07.789Z,94.53
2018-12-22T09:48:38.928Z,95.04
2018-12-22T09:51:10.151Z,93.71
2018-12-22T09:53:44.079Z,94.33
2018-12-22T09:56:22.703Z,94.35
2018-12-22T09:58:55.173Z,94.35
2018-12-22T10:01:33.626Z,94.73
2018-12-22T10:04:12.593Z,94.70
2018-12-22T10:06:43.865Z,93.69
2018-12-22T10:09:14.909Z,94.49
2018-12-22T10:11:45.971Z,93.02
2018-12-22T10:14:24.580Z,92.80
2018-12-22T10:17:02.847Z,91.56
2018-12-22T10:19:37.013Z,93.50
2018-12-22T10:22:11.057Z,93.15
2018-12-22T10:24:48.930Z,92.67
2018-12-22T10:27:26.938Z,92.78
2018-12-22T10:30:06.469Z,92.67
2018-12-22T10:32:45.085Z,93.42
2018-12-22T10:35:25.560Z,93.43
2018-12-22T10:37:57.498Z,91.86
2018-12-22T10:40:36.601Z,92.37
2018-12-22T10:43:14.501Z,93.67
2018-12-22T10:45:52.221Z,93.07
2018-12-22T10:48:23.385Z,92.31
2018-12-22T10:51:01.210Z,92.90
2018-12-22T10:53:39.207Z,93.08
2018-12-22T10:56:17.425Z,93.30
2018-12-22T10:58:48.782Z,91.93
2018-12-22T11:01:26.340Z,92.89
2018-12-22T11:04:02.844Z,93.29
2018-12-22T11:06:40.980Z,93.03
2018-12-22T11:09:12.503Z,93.41
2018-12-22T11:11:50.898Z,93.44
2018-12-22T11:14:28.934Z,93.21
2018-12-22T11:17:08.213Z,93.99
2018-12-22T11:19:39.475Z,92.14
2018-12-22T11:22:17.210Z,92.48
2018-12-22T11:24:48.424Z,92.47
2018-12-22T11:27:26.173Z,91.69
2018-12-22T11:30:06.365Z,90.58
2018-12-22T11:32:45.667Z,91.06
2018-12-22T11:35:23.785Z,90.76
2018-12-22T11:37:58.711Z,90.93
2018-12-22T11:40:36.496Z,90.10
2018-12-22T11:43:15.440Z,91.38
2018-12-22T11:45:53.466Z,92.08
2018-12-22T11:48:24.603Z,92.43
2018-12-22T11:50:58.552Z,92.33
2018-12-22T11:53:36.479Z,92.37
2018-12-22T11:56:09.900Z,90.98
2018-12-22T11:58:41.866Z,90.52
2018-12-22T12:01:27.546Z,90.13
2018-12-22T12:04:01.955Z,90.68
2018-12-22T12:06:39.955Z,90.95
2018-12-22T12:09:12.343Z,89.30
2018-12-22T12:11:50.041Z,89.44
2018-12-22T12:14:28.240Z,90.33
2018-12-22T12:17:13.885Z,89.60
2018-12-22T12:19:43.522Z,89.71
2018-12-22T12:22:18.662Z,89.37
2018-12-22T12:24:56.572Z,89.20
2018-12-22T12:27:35.743Z,89.29
2018-12-22T12:30:08.975Z,89.62
2018-12-22T12:32:49.675Z,88.49
2018-12-22T12:35:28.066Z,88.19
2018-12-22T12:38:03.207Z,87.97
2018-12-22T12:40:41.143Z,88.68
2018-12-22T12:43:19.245Z,87.47
2018-12-22T12:45:59.315Z,87.72
2018-12-22T12:48:30.709Z,88.73
2018-12-22T12:51:11.178Z,89.04
2018-12-22T12:53:42.943Z,90.14
2018-12-22T12:56:21.596Z,91.62
2018-12-22T12:58:55.758Z,93.24
2018-12-22T13:01:27.976Z,93.50
2018-12-22T13:03:57.961Z,94.39
2018-12-22T13:09:22.008Z,89.68
2018-12-22T13:12:00.783Z,91.04
2018-12-22T13:14:34.920Z,89.63
2018-12-22T13:17:10.900Z,89.72
2018-12-22T13:19:42.819Z,90.27
2018-12-22T13:22:16.755Z,90.30
2018-12-22T13:24:55.404Z,88.94
2018-12-22T13:27:33.526Z,89.04
2018-12-22T13:30:10.159Z,89.29
2018-12-22T13:32:40.908Z,90.28
2018-12-22T13:35:11.221Z,90.03
2018-12-22T13:37:40.847Z,91.50
2018-12-22T13:40:19.611Z,90.99
2018-12-22T13:42:53.946Z,91.53
2018-12-22T13:50:26.210Z,94.34
2018-12-22T13:52:56.160Z,94.02
2018-12-22T13:55:34.014Z,94.41
2018-12-22T13:58:05.234Z,95.51
2018-12-22T14:00:45.846Z,94.21
2018-12-22T14:03:24.199Z,93.17
2018-12-22T14:06:02.003Z,92.82
2018-12-22T14:08:36.097Z,92.10
2018-12-22T14:11:15.928Z,90.83
2018-12-22T14:13:50.124Z,92.42
2018-12-22T14:16:30.462Z,90.38
2018-12-22T14:19:01.605Z,89.49
2018-12-22T14:21:41.607Z,91.40
2018-12-22T14:24:19.897Z,89.49
2018-12-22T14:26:58.534Z,88.32
2018-12-22T14:29:29.894Z,90.71
2018-12-22T14:32:03.883Z,90.36
2018-12-22T14:34:38.162Z,89.60
2018-12-22T14:37:09.410Z,89.95
2018-12-22T14:39:41.245Z,91.46
2018-12-22T14:45:13.274Z,91.72
2018-12-22T14:47:45.510Z,91.90
2018-12-22T14:50:23.358Z,93.32
2018-12-22T14:52:58.639Z,92.95
2018-12-22T14:55:29.899Z,92.90
2018-12-22T14:58:02.112Z,91.15
2018-12-22T15:00:41.983Z,92.22
2018-12-22T15:03:19.841Z,90.72
2018-12-22T15:05:51.220Z,91.89
2018-12-22T15:08:23.187Z,93.36
2018-12-22T15:10:55.158Z,91.92
2018-12-22T15:13:33.794Z,92.45
2018-12-22T15:16:07.813Z,92.97
2018-12-22T15:18:38.962Z,91.47
2018-12-22T15:21:16.699Z,92.00
2018-12-22T15:23:47.858Z,94.38
2018-12-22T15:26:21.667Z,96.04
2018-12-22T15:28:55.576Z,95.28
2018-12-22T15:31:27.976Z,95.47
2018-12-22T15:33:59.840Z,95.14
2018-12-22T15:36:37.686Z,95.07
2018-12-22T15:39:09.072Z,96.13
2018-12-22T15:41:47.717Z,96.32
2018-12-22T15:44:26.703Z,96.87
2018-12-22T15:47:00.741Z,99.31
2018-12-22T15:49:34.649Z,99.99
2018-12-22T15:52:08.613Z,97.98
2018-12-22T15:54:46.364Z,98.80
2018-12-22T15:57:17.719Z,99.29
2018-12-22T15:59:48.882Z,98.52
2018-12-22T16:02:26.619Z,97.91
2018-12-22T16:05:06.394Z,96.21
2018-12-22T16:07:41.360Z,95.51
2018-12-22T16:10:19.791Z,95.94
2018-12-22T16:12:58.754Z,94.75
2018-12-22T16:15:36.903Z,94.01
2018-12-22T16:18:09.473Z,94.76
2018-12-22T16:20:40.517Z,94.97
2018-12-22T16:23:12.602Z,92.80
2018-12-22T16:25:51.281Z,92.33
2018-12-22T16:28:25.390Z,92.15
2018-12-22T16:31:03.234Z,91.90
2018-12-22T16:33:37.390Z,91.71
2018-12-22T16:36:11.730Z,90.98
2018-12-22T16:38:45.571Z,91.72
2018-12-22T16:41:17.828Z,92.53
2018-12-22T16:43:56.338Z,92.97
2018-12-22T16:46:27.788Z,93.67
2018-12-22T16:48:59.745Z,94.49
2018-12-22T16:51:32.054Z,94.95
2018-12-22T16:54:13.419Z,94.39
2018-12-22T16:56:54.082Z,93.59
2018-12-22T16:59:25.351Z,94.66
2018-12-22T17:02:04.978Z,94.19
2018-12-22T17:04:43.050Z,95.71
2018-12-22T17:07:22.178Z,96.31
2018-12-22T17:09:53.611Z,96.42
2018-12-22T17:12:33.284Z,94.69
2018-12-22T17:15:11.101Z,96.65
2018-12-22T17:17:42.316Z,96.58
2018-12-22T17:20:21.139Z,96.21
2018-12-22T17:26:14.188Z,96.94
2018-12-22T17:28:43.854Z,97.76
2018-12-22T17:31:14.910Z,98.37
2018-12-22T17:33:52.790Z,98.56
2018-12-22T17:36:27.029Z,100.00
2018-12-22T17:38:58.100Z,98.42
2018-12-22T17:44:30.535Z,99.62
2018-12-22T17:47:08.457Z,99.01
2018-12-22T17:49:40.527Z,100.00
2018-12-22T17:52:19.109Z,100.00
2018-12-22T17:54:58.154Z,100.00
2018-12-22T17:57:39.413Z,99.77
2018-12-22T18:00:26.903Z,100.00
2018-12-22T18:03:06.115Z,100.00
2018-12-22T18:05:46.541Z,100.00
2018-12-22T18:08:18.126Z,99.00
2018-12-22T18:10:55.848Z,98.99
2018-12-22T18:13:33.752Z,98.74
2018-12-22T18:16:11.985Z,98.68
2018-12-22T18:18:44.112Z,100.00
2018-12-22T18:21:22.071Z,100.00
2018-12-22T18:24:09.370Z,100.00
2018-12-22T18:26:47.290Z,100.00
2018-12-22T18:29:21.320Z,100.00
2018-12-22T18:31:53.255Z,100.00
2018-12-22T18:34:24.321Z,98.29
2018-12-22T18:36:57.328Z,98.83
2018-12-22T18:39:28.563Z,98.62
2018-12-22T18:42:09.131Z,98.98
2018-12-22T18:44:41.794Z,97.28
2018-12-22T18:47:12.785Z,98.99
2018-12-22T18:49:45.828Z,97.68
2018-12-22T18:52:24.551Z,98.64
2018-12-22T18:55:04.298Z,98.50
2018-12-22T18:57:42.734Z,97.55
2018-12-22T19:00:21.508Z,98.42
2018-12-22T19:02:59.818Z,98.25
2018-12-22T19:05:38.010Z,98.03
2018-12-22T19:08:12.126Z,98.68
2018-12-22T19:10:46.018Z,97.88
2018-12-22T19:13:23.739Z,98.81
2018-12-22T19:16:01.458Z,98.40
2018-12-22T19:18:32.734Z,99.24
2018-12-22T19:21:03.882Z,98.80
2018-12-22T19:23:49.348Z,97.62
2018-12-22T19:26:21.215Z,98.24
2018-12-22T19:28:52.275Z,98.69
2018-12-22T19:31:30.797Z,98.58
2018-12-22T19:34:09.787Z,98.21
2018-12-22T19:36:43.879Z,95.70
2018-12-22T19:39:14.792Z,95.48
2018-12-22T19:41:46.053Z,94.69
2018-12-22T19:44:20.398Z,94.76
2018-12-22T19:46:58.326Z,95.22
2018-12-22T19:49:32.370Z,95.46
2018-12-22T19:52:11.310Z,96.48
2018-12-22T19:54:51.751Z,94.76
2018-12-22T19:57:30.218Z,96.20
2018-12-22T20:00:07.990Z,95.91
2018-12-22T20:02:49.704Z,97.26
2018-12-22T20:05:29.965Z,97.64
2018-12-22T20:08:02.052Z,95.88
2018-12-22T20:10:33.198Z,97.81
2018-12-22T20:13:03.181Z,97.62
2018-12-22T20:15:37.144Z,98.20
2018-12-22T20:18:10.096Z,98.34
2018-12-22T20:20:47.881Z,98.24
2018-12-22T20:23:19.145Z,97.71
2018-12-22T20:25:51.011Z,98.32
2018-12-22T20:28:25.634Z,97.46
2018-12-22T20:31:03.930Z,98.12
2018-12-22T20:33:36.237Z,98.36
2018-12-22T20:36:15.328Z,97.73
2018-12-22T20:38:49.003Z,99.03
2018-12-22T20:41:18.889Z,99.38
2018-12-22T20:43:57.498Z,99.04
2018-12-22T20:46:37.933Z,98.01
2018-12-22T20:49:09.762Z,98.29
2018-12-22T20:51:49.549Z,99.30
2018-12-22T20:54:27.533Z,99.62
2018-12-22T20:56:58.678Z,100.00
2018-12-22T20:59:29.949Z,99.32
2018-12-22T21:02:08.553Z,99.92
2018-12-22T21:04:46.544Z,99.75
2018-12-22T21:07:20.676Z,99.63
2018-12-22T21:09:53.140Z,99.86
2018-12-22T21:12:31.203Z,98.96
2018-12-22T21:17:55.661Z,100.00
2018-12-22T21:23:18.470Z,100.00
2018-12-22T21:25:58.053Z,100.00
2018-12-22T21:28:32.096Z,100.00
2018-12-22T21:31:03.037Z,100.00
2018-12-22T21:33:32.786Z,100.00
2018-12-22T21:36:11.842Z,100.00
2018-12-22T21:38:43.093Z,100.00
2018-12-22T21:41:14.096Z,100.00
2018-12-22T21:43:51.834Z,100.00
2018-12-22T21:46:31.929Z,100.00
2018-12-22T21:49:03.183Z,100.00
2018-12-22T21:51:43.809Z,100.00
2018-12-22T21:54:15.142Z,100.00
2018-12-22T21:56:49.082Z,100.00
2018-12-22T21:59:20.252Z,100.00
2018-12-22T22:01:58.051Z,100.00
2018-12-22T22:04:37.103Z,100.00
2018-12-22T22:07:18.753Z,100.00
2018-12-22T22:09:50.282Z,100.00
2018-12-22T22:12:24.125Z,100.00
2018-12-22T22:15:03.775Z,100.00
2018-12-22T22:17:41.747Z,100.00
2018-12-22T22:20:19.694Z,100.00
2018-12-22T22:22:57.488Z,100.00
2018-12-22T22:25:35.503Z,100.00
2018-12-22T22:28:06.977Z,100.00
2018-12-22T22:30:39.081Z,100.00
2018-12-22T22:33:20.227Z,100.00
2018-12-22T22:35:58.728Z,100.00
2018-12-22T22:38:30.723Z,100.00
2018-12-22T22:41:02.593Z,100.00
2018-12-22T22:43:32.431Z,100.00
2018-12-22T22:46:10.175Z,100.00
2018-12-22T22:48:44.114Z,100.00
2018-12-22T22:51:18.126Z,100.00
2018-12-22T22:53:56.827Z,100.00
2018-12-22T22:56:28.873Z,100.00
2018-12-22T22:59:00.557Z,100.00
2018-12-22T23:01:38.743Z,100.00
2018-12-22T23:04:10.128Z,100.00
2018-12-22T23:06:48.072Z,100.00
2018-12-22T23:09:19.135Z,100.00
2018-12-22T23:11:51.136Z,100.00
2018-12-22T23:14:29.797Z,100.00
2018-12-22T23:17:07.852Z,100.00
2018-12-22T23:19:39.938Z,100.00
2018-12-22T23:22:18.608Z,100.00
2018-12-22T23:24:51.330Z,100.00
2018-12-22T23:27:29.228Z,100.00
2018-12-22T23:30:00.610Z,100.00
2018-12-22T23:32:38.432Z,100.00
2018-12-22T23:35:16.242Z,100.00
2018-12-22T23:37:48.670Z,100.00
2018-12-22T23:40:19.811Z,100.00
2018-12-22T23:42:59.471Z,100.00
2018-12-22T23:45:34.266Z,100.00
2018-12-22T23:48:09.046Z,100.00
2018-12-22T23:50:47.901Z,100.00
2018-12-22T23:53:17.810Z,100.00
2018-12-22T23:55:48.915Z,99.62
2018-12-22T23:58:20.718Z,100.00
